sensor_id;sensor_type;location;lat;lon;timestamp;temperature;humidity
18073;DHT22;9161;47.348;9.648;2022-08-07T00:00:14;18.60;99.90
18073;DHT22;9161;47.348;9.648;2022-08-07T00:05:02;18.50;99.90
18073;DHT22;9161;47.348;9.648;2022-08-07T00:09:46;18.50;99.90
18073;DHT22;9161;47.348;9.648;2022-08-07T00:14:50;18.50;99.90
18073;DHT22;9161;47.348;9.648;2022-08-07T00:19:33;18.60;99.90
18073;DHT22;9161;47.348;9.648;2022-08-07T00:24:38;18.60;99.90
18073;DHT22;9161;47.348;9.648;2022-08-07T00:29:25;18.60;99.90
18073;DHT22;9161;47.348;9.648;2022-08-07T00:34:13;18.60;99.90
18073;DHT22;9161;47.348;9.648;2022-08-07T00:39:02;18.60;99.90
18073;DHT22;9161;47.348;9.648;2022-08-07T00:43:47;18.70;99.90
18073;DHT22;9161;47.348;9.648;2022-08-07T00:48:43;18.70;99.90
18073;DHT22;9161;47.348;9.648;2022-08-07T00:53:32;18.60;99.90
18073;DHT22;9161;47.348;9.648;2022-08-07T00:58:20;18.60;99.90
18073;DHT22;9161;47.348;9.648;2022-08-07T01:03:06;18.60;99.90
18073;DHT22;9161;47.348;9.648;2022-08-07T01:07:53;18.50;99.90
18073;DHT22;9161;47.348;9.648;2022-08-07T01:12:39;18.60;99.90
18073;DHT22;9161;47.348;9.648;2022-08-07T01:17:35;18.60;99.90
18073;DHT22;9161;47.348;9.648;2022-08-07T01:22:22;18.60;99.90
18073;DHT22;9161;47.348;9.648;2022-08-07T01:27:10;18.60;99.90
18073;DHT22;9161;47.348;9.648;2022-08-07T01:32:01;18.50;99.90
18073;DHT22;9161;47.348;9.648;2022-08-07T01:36:54;18.50;99.90
18073;DHT22;9161;47.348;9.648;2022-08-07T01:41:40;18.50;99.90
18073;DHT22;9161;47.348;9.648;2022-08-07T01:46:45;18.30;99.90
18073;DHT22;9161;47.348;9.648;2022-08-07T01:51:30;18.30;99.90
18073;DHT22;9161;47.348;9.648;2022-08-07T01:56:42;18.30;99.90
18073;DHT22;9161;47.348;9.648;2022-08-07T02:01:34;18.30;99.90
18073;DHT22;9161;47.348;9.648;2022-08-07T02:06:39;18.40;99.90
18073;DHT22;9161;47.348;9.648;2022-08-07T02:11:23;18.40;99.90
18073;DHT22;9161;47.348;9.648;2022-08-07T02:16:29;18.30;99.90
18073;DHT22;9161;47.348;9.648;2022-08-07T02:21:15;18.30;99.90
18073;DHT22;9161;47.348;9.648;2022-08-07T02:26:01;18.30;99.90
18073;DHT22;9161;47.348;9.648;2022-08-07T02:31:06;18.20;99.90
18073;DHT22;9161;47.348;9.648;2022-08-07T02:36:11;18.20;99.90
18073;DHT22;9161;47.348;9.648;2022-08-07T02:41:13;18.20;99.90
18073;DHT22;9161;47.348;9.648;2022-08-07T02:46:03;18.20;99.90
18073;DHT22;9161;47.348;9.648;2022-08-07T02:50:49;18.30;99.90
18073;DHT22;9161;47.348;9.648;2022-08-07T02:55:41;18.30;99.90
18073;DHT22;9161;47.348;9.648;2022-08-07T03:00:49;18.30;99.90
18073;DHT22;9161;47.348;9.648;2022-08-07T03:05:34;18.20;99.90
18073;DHT22;9161;47.348;9.648;2022-08-07T03:10:19;18.20;99.90
18073;DHT22;9161;47.348;9.648;2022-08-07T03:15:07;18.30;99.90
18073;DHT22;9161;47.348;9.648;2022-08-07T03:19:53;18.30;99.90
18073;DHT22;9161;47.348;9.648;2022-08-07T03:24:37;18.30;99.90
18073;DHT22;9161;47.348;9.648;2022-08-07T03:29:23;18.30;99.90
18073;DHT22;9161;47.348;9.648;2022-08-07T03:34:11;18.30;99.90
18073;DHT22;9161;47.348;9.648;2022-08-07T03:39:04;18.30;99.90
18073;DHT22;9161;47.348;9.648;2022-08-07T03:43:50;18.20;99.90
18073;DHT22;9161;47.348;9.648;2022-08-07T03:48:38;18.20;99.90
18073;DHT22;9161;47.348;9.648;2022-08-07T03:53:43;18.20;99.90
18073;DHT22;9161;47.348;9.648;2022-08-07T03:58:48;18.10;99.90
18073;DHT22;9161;47.348;9.648;2022-08-07T04:03:52;18.10;99.90
18073;DHT22;9161;47.348;9.648;2022-08-07T04:08:38;18.10;99.90
18073;DHT22;9161;47.348;9.648;2022-08-07T04:13:25;18.10;99.90
18073;DHT22;9161;47.348;9.648;2022-08-07T04:18:29;18.10;99.90
18073;DHT22;9161;47.348;9.648;2022-08-07T04:23:33;18.10;99.90
18073;DHT22;9161;47.348;9.648;2022-08-07T04:28:39;18.00;99.90
18073;DHT22;9161;47.348;9.648;2022-08-07T04:33:23;18.00;99.90
18073;DHT22;9161;47.348;9.648;2022-08-07T04:38:09;18.10;99.90
18073;DHT22;9161;47.348;9.648;2022-08-07T04:42:55;18.10;99.90
18073;DHT22;9161;47.348;9.648;2022-08-07T04:47:52;18.10;99.90
18073;DHT22;9161;47.348;9.648;2022-08-07T04:52:55;18.20;99.90
18073;DHT22;9161;47.348;9.648;2022-08-07T04:57:50;18.20;99.90
18073;DHT22;9161;47.348;9.648;2022-08-07T05:03:03;18.20;99.90
18073;DHT22;9161;47.348;9.648;2022-08-07T05:08:14;18.20;99.90
18073;DHT22;9161;47.348;9.648;2022-08-07T05:13:25;18.30;99.90
18073;DHT22;9161;47.348;9.648;2022-08-07T05:18:34;18.30;99.90
18073;DHT22;9161;47.348;9.648;2022-08-07T05:23:22;18.30;99.90
18073;DHT22;9161;47.348;9.648;2022-08-07T05:28:12;18.30;99.90
18073;DHT22;9161;47.348;9.648;2022-08-07T05:33:04;18.40;99.90
18073;DHT22;9161;47.348;9.648;2022-08-07T05:37:52;18.40;99.90
18073;DHT22;9161;47.348;9.648;2022-08-07T05:42:51;18.50;99.90
18073;DHT22;9161;47.348;9.648;2022-08-07T05:47:37;18.60;99.90
18073;DHT22;9161;47.348;9.648;2022-08-07T05:52:41;18.70;99.90
18073;DHT22;9161;47.348;9.648;2022-08-07T05:57:29;18.80;99.90
18073;DHT22;9161;47.348;9.648;2022-08-07T06:02:19;19.00;99.90
18073;DHT22;9161;47.348;9.648;2022-08-07T06:07:10;19.00;99.90
18073;DHT22;9161;47.348;9.648;2022-08-07T06:12:14;19.10;99.90
18073;DHT22;9161;47.348;9.648;2022-08-07T06:17:04;19.10;99.90
18073;DHT22;9161;47.348;9.648;2022-08-07T06:21:50;19.10;99.90
18073;DHT22;9161;47.348;9.648;2022-08-07T06:26:53;19.20;99.90
18073;DHT22;9161;47.348;9.648;2022-08-07T06:31:37;19.20;99.90
18073;DHT22;9161;47.348;9.648;2022-08-07T06:36:32;19.30;99.90
18073;DHT22;9161;47.348;9.648;2022-08-07T06:41:20;19.30;99.90
18073;DHT22;9161;47.348;9.648;2022-08-07T06:46:25;19.40;99.90
18073;DHT22;9161;47.348;9.648;2022-08-07T06:51:19;19.40;99.90
18073;DHT22;9161;47.348;9.648;2022-08-07T06:56:16;19.40;99.90
18073;DHT22;9161;47.348;9.648;2022-08-07T07:01:31;19.60;99.90
18073;DHT22;9161;47.348;9.648;2022-08-07T07:06:30;19.80;99.90
18073;DHT22;9161;47.348;9.648;2022-08-07T07:11:21;19.90;99.90
18073;DHT22;9161;47.348;9.648;2022-08-07T07:16:26;19.90;99.90
18073;DHT22;9161;47.348;9.648;2022-08-07T07:21:15;19.90;99.90
18073;DHT22;9161;47.348;9.648;2022-08-07T07:26:03;20.00;99.90
18073;DHT22;9161;47.348;9.648;2022-08-07T07:31:15;20.20;99.90
18073;DHT22;9161;47.348;9.648;2022-08-07T07:36:03;20.20;99.90
18073;DHT22;9161;47.348;9.648;2022-08-07T07:40:56;20.30;99.90
18073;DHT22;9161;47.348;9.648;2022-08-07T07:45:44;20.50;99.90
18073;DHT22;9161;47.348;9.648;2022-08-07T07:50:51;20.50;99.90
18073;DHT22;9161;47.348;9.648;2022-08-07T07:55:37;20.80;99.90
18073;DHT22;9161;47.348;9.648;2022-08-07T08:00:36;21.10;99.90
18073;DHT22;9161;47.348;9.648;2022-08-07T08:05:23;21.60;99.90
18073;DHT22;9161;47.348;9.648;2022-08-07T08:10:28;21.50;99.90
18073;DHT22;9161;47.348;9.648;2022-08-07T08:15:19;21.80;99.90
18073;DHT22;9161;47.348;9.648;2022-08-07T08:20:06;22.30;99.90
18073;DHT22;9161;47.348;9.648;2022-08-07T08:25:06;22.70;99.90
18073;DHT22;9161;47.348;9.648;2022-08-07T08:30:31;22.80;99.90
18073;DHT22;9161;47.348;9.648;2022-08-07T08:35:21;22.70;99.90
18073;DHT22;9161;47.348;9.648;2022-08-07T08:40:15;22.70;99.90
18073;DHT22;9161;47.348;9.648;2022-08-07T08:45:13;23.00;99.90
18073;DHT22;9161;47.348;9.648;2022-08-07T08:50:04;23.10;99.90
18073;DHT22;9161;47.348;9.648;2022-08-07T08:55:00;23.50;99.90
18073;DHT22;9161;47.348;9.648;2022-08-07T08:59:53;23.70;99.90
18073;DHT22;9161;47.348;9.648;2022-08-07T09:04:44;24.10;99.90
18073;DHT22;9161;47.348;9.648;2022-08-07T09:09:45;24.10;99.90
18073;DHT22;9161;47.348;9.648;2022-08-07T09:14:43;24.40;99.90
18073;DHT22;9161;47.348;9.648;2022-08-07T09:19:48;24.80;99.90
18073;DHT22;9161;47.348;9.648;2022-08-07T09:24:46;25.20;99.90
18073;DHT22;9161;47.348;9.648;2022-08-07T09:29:55;25.00;99.90
18073;DHT22;9161;47.348;9.648;2022-08-07T09:34:54;24.80;99.90
18073;DHT22;9161;47.348;9.648;2022-08-07T09:40:10;24.90;99.90
18073;DHT22;9161;47.348;9.648;2022-08-07T09:45:07;24.60;99.90
18073;DHT22;9161;47.348;9.648;2022-08-07T09:50:19;24.40;99.90
18073;DHT22;9161;47.348;9.648;2022-08-07T09:55:15;24.10;99.90
18073;DHT22;9161;47.348;9.648;2022-08-07T10:00:20;24.30;99.90
18073;DHT22;9161;47.348;9.648;2022-08-07T10:05:28;24.50;99.90
18073;DHT22;9161;47.348;9.648;2022-08-07T10:10:44;24.40;99.90
18073;DHT22;9161;47.348;9.648;2022-08-07T10:16:09;24.20;99.90
18073;DHT22;9161;47.348;9.648;2022-08-07T10:21:17;24.20;99.90
18073;DHT22;9161;47.348;9.648;2022-08-07T10:26:35;23.60;99.90
18073;DHT22;9161;47.348;9.648;2022-08-07T10:31:46;24.00;99.90
18073;DHT22;9161;47.348;9.648;2022-08-07T10:36:41;23.60;99.90
18073;DHT22;9161;47.348;9.648;2022-08-07T10:41:33;23.30;99.90
18073;DHT22;9161;47.348;9.648;2022-08-07T10:46:40;23.10;99.90
18073;DHT22;9161;47.348;9.648;2022-08-07T10:51:31;22.80;99.90
18073;DHT22;9161;47.348;9.648;2022-08-07T10:56:45;23.00;99.90
18073;DHT22;9161;47.348;9.648;2022-08-07T11:01:37;22.90;99.90
18073;DHT22;9161;47.348;9.648;2022-08-07T11:06:49;22.80;99.90
18073;DHT22;9161;47.348;9.648;2022-08-07T11:11:41;22.60;99.90
18073;DHT22;9161;47.348;9.648;2022-08-07T11:16:40;22.40;99.90
18073;DHT22;9161;47.348;9.648;2022-08-07T11:21:38;22.80;99.90
18073;DHT22;9161;47.348;9.648;2022-08-07T11:26:32;23.00;99.90
18073;DHT22;9161;47.348;9.648;2022-08-07T11:31:36;23.40;99.90
18073;DHT22;9161;47.348;9.648;2022-08-07T11:36:38;23.70;99.90
18073;DHT22;9161;47.348;9.648;2022-08-07T11:41:28;24.10;99.90
18073;DHT22;9161;47.348;9.648;2022-08-07T11:46:46;24.30;99.90
18073;DHT22;9161;47.348;9.648;2022-08-07T11:51:41;24.70;99.90
18073;DHT22;9161;47.348;9.648;2022-08-07T11:56:46;24.90;99.90
18073;DHT22;9161;47.348;9.648;2022-08-07T12:01:47;25.10;99.90
18073;DHT22;9161;47.348;9.648;2022-08-07T12:06:47;25.00;99.90
18073;DHT22;9161;47.348;9.648;2022-08-07T12:11:47;25.00;99.90
18073;DHT22;9161;47.348;9.648;2022-08-07T12:16:57;24.80;99.90
18073;DHT22;9161;47.348;9.648;2022-08-07T12:21:51;24.70;99.90
18073;DHT22;9161;47.348;9.648;2022-08-07T12:27:07;24.70;99.90
18073;DHT22;9161;47.348;9.648;2022-08-07T12:32:08;24.80;99.90
18073;DHT22;9161;47.348;9.648;2022-08-07T12:36:56;24.80;99.90
18073;DHT22;9161;47.348;9.648;2022-08-07T12:41:42;24.80;99.90
18073;DHT22;9161;47.348;9.648;2022-08-07T12:46:42;24.70;99.90
18073;DHT22;9161;47.348;9.648;2022-08-07T12:51:40;24.70;99.90
18073;DHT22;9161;47.348;9.648;2022-08-07T12:56:48;24.40;99.90
18073;DHT22;9161;47.348;9.648;2022-08-07T13:01:55;24.40;99.90
18073;DHT22;9161;47.348;9.648;2022-08-07T13:06:58;24.40;99.90
18073;DHT22;9161;47.348;9.648;2022-08-07T13:11:52;24.40;99.90
18073;DHT22;9161;47.348;9.648;2022-08-07T13:16:47;24.30;99.90
18073;DHT22;9161;47.348;9.648;2022-08-07T13:21:41;24.30;99.90
18073;DHT22;9161;47.348;9.648;2022-08-07T13:26:45;24.10;99.90
18073;DHT22;9161;47.348;9.648;2022-08-07T13:31:38;24.10;99.90
18073;DHT22;9161;47.348;9.648;2022-08-07T13:36:41;23.70;99.90
18073;DHT22;9161;47.348;9.648;2022-08-07T13:41:33;24.00;99.90
18073;DHT22;9161;47.348;9.648;2022-08-07T13:46:30;24.20;99.90
18073;DHT22;9161;47.348;9.648;2022-08-07T13:51:27;24.20;99.90
18073;DHT22;9161;47.348;9.648;2022-08-07T13:56:34;24.20;99.90
18073;DHT22;9161;47.348;9.648;2022-08-07T14:01:36;23.80;99.90
18073;DHT22;9161;47.348;9.648;2022-08-07T14:06:43;23.40;99.90
18073;DHT22;9161;47.348;9.648;2022-08-07T14:11:35;23.60;99.90
18073;DHT22;9161;47.348;9.648;2022-08-07T14:16:43;23.40;99.90
18073;DHT22;9161;47.348;9.648;2022-08-07T14:21:38;23.30;99.90
18073;DHT22;9161;47.348;9.648;2022-08-07T14:26:48;23.30;99.90
18073;DHT22;9161;47.348;9.648;2022-08-07T14:31:33;23.30;99.90
18073;DHT22;9161;47.348;9.648;2022-08-07T14:36:35;23.20;99.90
18073;DHT22;9161;47.348;9.648;2022-08-07T14:41:25;23.10;99.90
18073;DHT22;9161;47.348;9.648;2022-08-07T14:46:31;23.10;99.90
18073;DHT22;9161;47.348;9.648;2022-08-07T14:51:19;23.20;99.90
18073;DHT22;9161;47.348;9.648;2022-08-07T14:56:07;23.20;99.90
18073;DHT22;9161;47.348;9.648;2022-08-07T15:00:55;23.10;99.90
18073;DHT22;9161;47.348;9.648;2022-08-07T15:05:41;23.10;99.90
18073;DHT22;9161;47.348;9.648;2022-08-07T15:10:45;23.10;99.90
18073;DHT22;9161;47.348;9.648;2022-08-07T15:15:52;23.00;99.90
18073;DHT22;9161;47.348;9.648;2022-08-07T15:20:43;23.10;99.90
18073;DHT22;9161;47.348;9.648;2022-08-07T15:25:53;23.10;99.90
18073;DHT22;9161;47.348;9.648;2022-08-07T15:30:38;22.90;99.90
18073;DHT22;9161;47.348;9.648;2022-08-07T15:35:48;22.80;99.90
18073;DHT22;9161;47.348;9.648;2022-08-07T15:40:59;22.70;99.90
18073;DHT22;9161;47.348;9.648;2022-08-07T15:46:15;22.70;99.90
18073;DHT22;9161;47.348;9.648;2022-08-07T15:51:22;22.80;99.90
18073;DHT22;9161;47.348;9.648;2022-08-07T15:56:32;22.90;99.90
18073;DHT22;9161;47.348;9.648;2022-08-07T16:01:20;23.30;99.90
18073;DHT22;9161;47.348;9.648;2022-08-07T16:06:30;23.60;99.90
18073;DHT22;9161;47.348;9.648;2022-08-07T16:11:28;23.90;99.90
18073;DHT22;9161;47.348;9.648;2022-08-07T16:21:46;23.90;99.90
18073;DHT22;9161;47.348;9.648;2022-08-07T16:27:01;24.20;99.90
18073;DHT22;9161;47.348;9.648;2022-08-07T16:32:01;24.40;99.90
18073;DHT22;9161;47.348;9.648;2022-08-07T16:42:40;23.40;99.90
18073;DHT22;9161;47.348;9.648;2022-08-07T16:47:52;23.60;99.90
18073;DHT22;9161;47.348;9.648;2022-08-07T16:52:48;23.70;99.90
18073;DHT22;9161;47.348;9.648;2022-08-07T16:58:00;23.50;99.90
18073;DHT22;9161;47.348;9.648;2022-08-07T17:08:40;23.50;99.90
18073;DHT22;9161;47.348;9.648;2022-08-07T17:13:56;23.40;99.90
18073;DHT22;9161;47.348;9.648;2022-08-07T17:19:02;23.20;99.90
18073;DHT22;9161;47.348;9.648;2022-08-07T17:24:12;23.10;99.90
18073;DHT22;9161;47.348;9.648;2022-08-07T17:29:08;23.00;99.90
18073;DHT22;9161;47.348;9.648;2022-08-07T17:34:21;23.00;99.90
18073;DHT22;9161;47.348;9.648;2022-08-07T17:39:22;22.80;99.90
18073;DHT22;9161;47.348;9.648;2022-08-07T17:44:34;22.80;99.90
18073;DHT22;9161;47.348;9.648;2022-08-07T17:49:35;22.70;99.90
18073;DHT22;9161;47.348;9.648;2022-08-07T17:54:33;22.50;99.90
18073;DHT22;9161;47.348;9.648;2022-08-07T17:59:41;22.20;99.90
18073;DHT22;9161;47.348;9.648;2022-08-07T18:04:41;22.00;99.90
18073;DHT22;9161;47.348;9.648;2022-08-07T18:09:29;21.80;99.90
18073;DHT22;9161;47.348;9.648;2022-08-07T18:14:41;21.60;99.90
18073;DHT22;9161;47.348;9.648;2022-08-07T18:19:35;21.50;99.90
18073;DHT22;9161;47.348;9.648;2022-08-07T18:24:49;21.30;99.90
18073;DHT22;9161;47.348;9.648;2022-08-07T18:29:37;21.00;99.90
18073;DHT22;9161;47.348;9.648;2022-08-07T18:34:58;20.80;99.90
18073;DHT22;9161;47.348;9.648;2022-08-07T18:40:00;20.70;99.90
18073;DHT22;9161;47.348;9.648;2022-08-07T18:45:26;20.60;99.90
18073;DHT22;9161;47.348;9.648;2022-08-07T18:51:05;20.70;99.90
18073;DHT22;9161;47.348;9.648;2022-08-07T18:56:11;20.50;99.90
18073;DHT22;9161;47.348;9.648;2022-08-07T19:01:14;20.50;99.90
18073;DHT22;9161;47.348;9.648;2022-08-07T19:06:27;20.50;99.90
18073;DHT22;9161;47.348;9.648;2022-08-07T19:11:18;20.40;99.90
18073;DHT22;9161;47.348;9.648;2022-08-07T19:16:22;20.30;99.90
18073;DHT22;9161;47.348;9.648;2022-08-07T19:21:40;20.10;99.90
18073;DHT22;9161;47.348;9.648;2022-08-07T19:26:47;19.90;99.90
18073;DHT22;9161;47.348;9.648;2022-08-07T19:31:55;19.80;99.90
18073;DHT22;9161;47.348;9.648;2022-08-07T19:37:01;19.60;99.90
18073;DHT22;9161;47.348;9.648;2022-08-07T19:41:58;19.50;99.90
18073;DHT22;9161;47.348;9.648;2022-08-07T19:47:07;19.30;99.90
18073;DHT22;9161;47.348;9.648;2022-08-07T19:51:55;19.20;99.90
18073;DHT22;9161;47.348;9.648;2022-08-07T19:56:45;19.10;99.90
18073;DHT22;9161;47.348;9.648;2022-08-07T20:01:54;19.00;99.90
18073;DHT22;9161;47.348;9.648;2022-08-07T20:06:40;18.90;99.90
18073;DHT22;9161;47.348;9.648;2022-08-07T20:11:27;18.80;99.90
18073;DHT22;9161;47.348;9.648;2022-08-07T20:16:32;18.80;99.90
18073;DHT22;9161;47.348;9.648;2022-08-07T20:21:19;18.80;99.90
18073;DHT22;9161;47.348;9.648;2022-08-07T20:26:10;19.30;99.90
18073;DHT22;9161;47.348;9.648;2022-08-07T20:31:12;19.30;99.90
18073;DHT22;9161;47.348;9.648;2022-08-07T20:36:04;18.80;99.90
18073;DHT22;9161;47.348;9.648;2022-08-07T20:40:54;18.60;99.90
18073;DHT22;9161;47.348;9.648;2022-08-07T20:45:40;18.40;99.90
18073;DHT22;9161;47.348;9.648;2022-08-07T20:50:45;18.30;99.90
18073;DHT22;9161;47.348;9.648;2022-08-07T20:55:30;18.50;99.90
18073;DHT22;9161;47.348;9.648;2022-08-07T21:00:21;18.50;99.90
18073;DHT22;9161;47.348;9.648;2022-08-07T21:05:08;18.40;99.90
18073;DHT22;9161;47.348;9.648;2022-08-07T21:09:57;18.40;99.90
18073;DHT22;9161;47.348;9.648;2022-08-07T21:14:42;18.50;99.90
18073;DHT22;9161;47.348;9.648;2022-08-07T21:19:36;18.40;99.90
18073;DHT22;9161;47.348;9.648;2022-08-07T21:24:49;18.30;99.90
18073;DHT22;9161;47.348;9.648;2022-08-07T21:29:42;18.20;99.90
18073;DHT22;9161;47.348;9.648;2022-08-07T21:34:40;18.10;99.90
18073;DHT22;9161;47.348;9.648;2022-08-07T21:39:35;18.10;99.90
18073;DHT22;9161;47.348;9.648;2022-08-07T21:44:37;17.90;99.90
18073;DHT22;9161;47.348;9.648;2022-08-07T21:49:37;17.90;99.90
18073;DHT22;9161;47.348;9.648;2022-08-07T21:54:51;17.70;99.90
18073;DHT22;9161;47.348;9.648;2022-08-07T21:59:47;17.70;99.90
18073;DHT22;9161;47.348;9.648;2022-08-07T22:04:48;17.60;99.90
18073;DHT22;9161;47.348;9.648;2022-08-07T22:09:38;17.60;99.90
18073;DHT22;9161;47.348;9.648;2022-08-07T22:14:42;17.60;99.90
18073;DHT22;9161;47.348;9.648;2022-08-07T22:19:54;17.50;99.90
18073;DHT22;9161;47.348;9.648;2022-08-07T22:24:51;17.50;99.90
18073;DHT22;9161;47.348;9.648;2022-08-07T22:29:46;17.50;99.90
18073;DHT22;9161;47.348;9.648;2022-08-07T22:34:36;17.40;99.90
18073;DHT22;9161;47.348;9.648;2022-08-07T22:39:41;17.40;99.90
18073;DHT22;9161;47.348;9.648;2022-08-07T22:44:37;17.20;99.90
18073;DHT22;9161;47.348;9.648;2022-08-07T22:49:54;17.30;99.90
18073;DHT22;9161;47.348;9.648;2022-08-07T22:55:14;17.20;99.90
18073;DHT22;9161;47.348;9.648;2022-08-07T23:00:09;17.10;99.90
18073;DHT22;9161;47.348;9.648;2022-08-07T23:10:59;17.10;99.90
18073;DHT22;9161;47.348;9.648;2022-08-07T23:16:02;16.90;99.90
18073;DHT22;9161;47.348;9.648;2022-08-07T23:21:22;16.80;99.90
18073;DHT22;9161;47.348;9.648;2022-08-07T23:26:19;16.70;99.90
18073;DHT22;9161;47.348;9.648;2022-08-07T23:31:16;16.60;99.90
18073;DHT22;9161;47.348;9.648;2022-08-07T23:36:29;16.60;99.90
18073;DHT22;9161;47.348;9.648;2022-08-07T23:41:31;16.50;99.90
18073;DHT22;9161;47.348;9.648;2022-08-07T23:46:55;16.30;99.90
18073;DHT22;9161;47.348;9.648;2022-08-07T23:51:43;16.30;99.90
18073;DHT22;9161;47.348;9.648;2022-08-07T23:56:55;16.20;99.90
